AYNZ

Lae Nadzab Airport

Nadzab, Papua New Guinea

AYNZ 202200Z 00000KT 9999 FEW016 SCT030 BKN120 23/21 Q1012

Observed Flight Rules
Aug-20 @ 22:00 UTC (55 minutes ago)
 
Visual Flight Rules
Wind Visibility Clouds
Calm 10,000+ meters
  • Few at 1,600' AGL
  • Scattered at 3,000' AGL
  • Broken at 12,000' AGL
Temperatures Readings
Current 23°C / 73°F
Dewpoint 21°C / 70°F
Humidity 89%
Altimeter 29.88" Hg
Pressure 1012 hPa
Elevation 70
Observed Flight Rules
Aug-20 @ 22:00 UTC
(55 minutes ago)
 
VFR
Wind Visibility
Calm 10,000+ meters
Clouds
  • Few at 1,600' AGL
  • Scattered at 3,000' AGL
  • Broken at 12,000' AGL
Temperature Dewpoint
23°C / 73°F 21°C / 70°F
Humidity Altimeter Pressure
89% 29.88" Hg 1012 hPa